Time;durP1;ratioP1;P1;durP2;ratioP2;P2;SDS_P1;SDS_P2;PMS_P1;PMS_P2;Temp;Humidity;BMP_temperature;BMP_pressure;BME280_temperature;BME280_humidity;BME280_pressure;Samples;Min_cycle;Max_cycle;Signal;HPM_P1;HPM_P2
2021/08/02 00:00:10;;;;;;;10.72;6.00;;;;;;;19.86;96.55;99484.14;1420649;91;21456;-83
2021/08/02 00:02:51;;;;;;;7.37;5.50;;;;;;;19.81;96.47;99481.61;1437485;91;21568;-84
2021/08/02 00:05:18;;;;;;;;;;;;;;;19.77;96.82;99477.76;1421171;90;21626;-84
2021/08/02 00:07:47;;;;;;;10.78;5.60;;;;;;;19.71;97.05;99480.52;1443203;90;20963;-84
2021/08/02 00:10:16;;;;;;;6.22;5.55;;;;;;;19.69;96.75;99489.36;1448141;90;21663;-84
2021/08/02 00:12:50;;;;;;;9.18;6.50;;;;;;;19.66;96.91;99481.77;1437913;90;21693;-84
2021/08/02 00:15:19;;;;;;;7.87;5.62;;;;;;;19.64;96.89;99487.31;1436632;90;22402;-83
2021/08/02 00:17:47;;;;;;;12.20;5.05;;;;;;;19.61;96.76;99487.25;1442971;90;21494;-82
2021/08/02 00:20:18;;;;;;;13.75;5.87;;;;;;;19.58;97.10;99495.76;1435261;90;21531;-82
2021/08/02 00:22:45;;;;;;;7.87;6.10;;;;;;;19.55;96.80;99484.67;1443680;90;22116;-83
2021/08/02 00:25:13;;;;;;;8.38;6.28;;;;;;;19.53;97.31;99480.05;1442065;90;22463;-83
2021/08/02 00:27:39;;;;;;;7.90;6.33;;;;;;;19.53;96.82;99485.41;1442374;90;22424;-83
2021/08/02 00:30:08;;;;;;;6.72;5.83;;;;;;;19.52;96.80;99493.99;1445375;90;21479;-83
2021/08/02 00:32:36;;;;;;;8.20;6.03;;;;;;;19.49;96.79;99493.11;1443916;90;21397;-83
2021/08/02 00:35:04;;;;;;;10.65;6.08;;;;;;;19.49;96.83;99490.43;1437869;90;21560;-83
2021/08/02 00:38:04;;;;;;;8.10;6.25;;;;;;;19.47;97.41;99491.70;1408099;90;22573;-83
2021/08/02 00:40:51;;;;;;;9.80;6.83;;;;;;;19.45;97.00;99484.39;1444024;90;21486;-83
2021/08/02 00:44:15;;;;;;;12.90;7.12;;;;;;;19.44;97.00;99476.06;1415898;90;21471;-83
2021/08/02 00:46:47;;;;;;;10.13;6.75;;;;;;;19.42;97.12;99472.78;1441534;90;21498;-83
2021/08/02 00:49:15;;;;;;;8.60;6.62;;;;;;;19.36;97.29;99478.03;1434274;90;21649;-83
2021/08/02 00:51:49;;;;;;;7.03;6.33;;;;;;;19.36;97.28;99478.03;1440979;90;21649;-83
2021/08/02 00:54:16;;;;;;;12.70;7.25;;;;;;;19.35;97.39;99484.95;1442831;90;22096;-82
2021/08/02 00:56:46;;;;;;;8.35;6.58;;;;;;;19.34;97.83;99480.64;1450122;90;21561;-83
2021/08/02 00:59:13;;;;;;;9.63;7.33;;;;;;;19.34;97.72;99483.33;1443048;90;21486;-83
2021/08/02 01:01:39;;;;;;;20.40;14.00;;;;;;;19.33;98.22;99473.13;1438550;90;21801;-82
2021/08/02 01:04:08;;;;;;;18.60;16.50;;;;;;;19.35;98.03;99468.86;1440338;90;21538;-83
2021/08/02 01:06:38;;;;;;;21.07;15.55;;;;;;;19.33;98.40;99473.13;1444337;90;21508;-83
2021/08/02 01:09:06;;;;;;;19.00;15.60;;;;;;;19.31;98.33;99475.21;1428046;90;22580;-83
2021/08/02 01:11:34;;;;;;;18.10;15.83;;;;;;;19.35;97.98;99481.74;1442204;90;21662;-82
2021/08/02 01:14:09;;;;;;;17.35;15.60;;;;;;;19.36;98.30;99482.55;1440885;90;22165;-83
2021/08/02 01:16:35;;;;;;;20.50;17.10;;;;;;;19.38;98.01;99489.33;1438231;90;21537;-83
2021/08/02 01:19:08;;;;;;;23.62;16.50;;;;;;;19.39;97.92;99489.66;1434382;91;21690;-83
2021/08/02 01:21:39;;;;;;;19.95;17.77;;;;;;;19.43;97.87;99490.53;1464701;88;21655;-83
2021/08/02 01:24:09;;;;;;;22.60;17.62;;;;;;;19.44;97.94;99502.89;1472596;87;21462;-83
2021/08/02 01:26:50;;;;;;;21.20;19.10;;;;;;;19.43;97.72;99506.11;1476064;88;21485;-83
2021/08/02 01:30:13;;;;;;;20.00;18.00;;;;;;;19.40;97.54;99503.88;1473357;87;21478;-83
2021/08/02 01:32:40;;;;;;;34.60;16.70;;;;;;;19.40;97.50;99506.56;1474278;87;21500;-83
2021/08/02 01:35:09;;;;;;;17.85;15.80;;;;;;;19.39;97.53;99515.14;1474133;87;21630;-84
2021/08/02 01:37:35;;;;;;;20.80;15.75;;;;;;;19.36;97.16;99500.84;1468454;87;21463;-84
2021/08/02 01:40:03;;;;;;;16.23;14.55;;;;;;;19.33;97.00;99510.69;1475533;88;22445;-84
2021/08/02 01:42:29;;;;;;;17.98;14.40;;;;;;;19.32;97.16;99503.66;1479181;87;21463;-84
2021/08/02 01:44:55;;;;;;;16.80;15.05;;;;;;;19.34;96.99;99501.58;1470835;88;21396;-84
2021/08/02 01:48:03;;;;;;;15.80;14.30;;;;;;;19.34;96.83;99505.61;1469986;88;21462;-84
2021/08/02 01:51:08;;;;;;;14.60;13.15;;;;;;;19.32;96.55;99510.38;1479612;87;21448;-84
2021/08/02 01:54:20;;;;;;;16.35;12.18;;;;;;;19.30;96.52;99507.09;1471567;87;21654;-84
2021/08/02 01:57:13;;;;;;;15.40;11.43;;;;;;;19.26;96.40;99494.38;1483512;87;21492;-84
2021/08/02 02:00:00;;;;;;;14.43;10.25;;;;;;;19.28;96.30;99494.45;1469431;88;21642;-84
2021/08/02 02:02:29;;;;;;;9.83;8.93;;;;;;;19.24;95.83;99510.68;1481217;87;21396;-84
2021/08/02 02:05:06;;;;;;;11.28;7.65;;;;;;;19.17;95.68;99519.34;1458105;87;21509;-84
2021/08/02 02:07:49;;;;;;;8.63;7.72;;;;;;;19.12;95.41;99515.17;1430746;90;21727;-85
2021/08/02 02:10:21;;;;;;;16.25;8.05;;;;;;;19.07;95.52;99511.00;1424216;90;21518;-84
2021/08/02 02:12:49;;;;;;;12.80;7.58;;;;;;;19.02;95.45;99521.58;1439243;90;21548;-84
2021/08/02 02:15:17;;;;;;;9.18;7.08;;;;;;;19.02;95.72;99530.97;1441201;90;21488;-84
2021/08/02 02:17:45;;;;;;;7.75;7.00;;;;;;;18.99;95.59;99534.94;1448175;90;22419;-83
2021/08/02 02:20:13;;;;;;;8.50;7.28;;;;;;;18.95;95.38;99532.39;1430041;90;21429;-84
2021/08/02 02:22:41;;;;;;;10.23;6.53;;;;;;;18.89;95.49;99531.95;1445432;90;21529;-85
2021/08/02 02:25:10;;;;;;;9.38;7.17;;;;;;;18.81;95.59;99525.02;1425397;90;21548;-83
2021/08/02 02:27:37;;;;;;;9.65;7.17;;;;;;;18.81;95.83;99518.84;1425972;91;21430;-84
2021/08/02 02:30:06;;;;;;;10.32;6.95;;;;;;;18.81;95.66;99516.97;1421363;91;21504;-84
2021/08/02 02:32:38;;;;;;;11.30;7.60;;;;;;;18.78;95.43;99521.44;1424938;91;21424;-84
2021/08/02 02:35:06;;;;;;;10.85;7.85;;;;;;;18.79;95.38;99527.62;1421399;91;22237;-84
2021/08/02 02:37:33;;;;;;;11.10;7.28;;;;;;;18.75;95.51;99539.31;1427726;91;22303;-84
2021/08/02 02:40:00;;;;;;;8.48;6.08;;;;;;;18.75;95.62;99539.31;1426277;91;21490;-84
2021/08/02 02:42:27;;;;;;;9.53;7.40;;;;;;;18.77;95.41;99546.62;1431861;90;22488;-85
2021/08/02 02:44:54;;;;;;;7.58;6.05;;;;;;;18.77;95.38;99551.16;1421402;91;21446;-85
2021/08/02 02:47:22;;;;;;;8.28;7.40;;;;;;;18.77;95.33;99545.28;1424327;90;21718;-85
2021/08/02 02:49:49;;;;;;;9.03;7.90;;;;;;;18.79;95.21;99559.29;1418037;91;22310;-83
2021/08/02 02:52:15;;;;;;;9.85;7.03;;;;;;;18.79;95.18;99556.61;1422350;91;21667;-85
2021/08/02 02:54:47;;;;;;;11.18;7.62;;;;;;;18.82;95.20;99558.84;1428038;91;22347;-84
2021/08/02 02:57:13;;;;;;;8.90;6.53;;;;;;;18.86;95.36;99560.55;1429275;90;22369;-84
2021/08/02 02:59:40;;;;;;;8.43;7.53;;;;;;;18.88;95.03;99555.27;1425093;91;21586;-84
2021/08/02 03:02:06;;;;;;;7.60;6.80;;;;;;;18.87;94.79;99572.41;1427020;91;21527;-84
2021/08/02 03:04:37;;;;;;;8.30;7.12;;;;;;;18.86;94.59;99584.15;1428379;91;21607;-84
2021/08/02 03:07:08;;;;;;;10.68;7.08;;;;;;;18.85;94.37;99589.22;1431269;91;22447;-84
2021/08/02 03:09:37;;;;;;;19.40;7.97;;;;;;;18.83;94.20;99594.50;1426924;91;21548;-84
2021/08/02 03:12:04;;;;;;;22.95;7.80;;;;;;;18.81;94.00;99602.75;1426973;91;21467;-84
2021/08/02 03:14:31;;;;;;;6.67;5.78;;;;;;;18.81;94.02;99611.32;1428581;90;21623;-84
2021/08/02 03:16:57;;;;;;;11.08;7.20;;;;;;;18.79;93.94;99614.23;1434562;90;21435;-84
2021/08/02 03:19:24;;;;;;;11.57;6.97;;;;;;;18.79;93.71;99618.26;1423071;90;22587;-84
2021/08/02 03:21:50;;;;;;;9.20;7.03;;;;;;;18.73;93.47;99624.48;1429217;92;21486;-83
2021/08/02 03:24:27;;;;;;;13.65;6.70;;;;;;;18.71;93.62;99615.30;1425078;90;21375;-84
2021/08/02 03:27:11;;;;;;;13.53;6.95;;;;;;;18.72;93.46;99618.80;1420457;90;21486;-84
2021/08/02 03:29:42;;;;;;;9.50;7.42;;;;;;;18.69;93.23;99621.39;1426604;90;21413;-84
2021/08/02 03:32:14;;;;;;;11.35;7.67;;;;;;;18.71;93.22;99625.20;1423437;90;21442;-84
2021/08/02 03:34:44;;;;;;;10.65;7.22;;;;;;;18.73;93.16;99635.20;1427547;90;21486;-84
2021/08/02 03:37:13;;;;;;;9.80;7.53;;;;;;;18.74;93.14;99634.17;1435198;90;21612;-84
2021/08/02 03:39:40;;;;;;;9.43;7.75;;;;;;;18.72;92.97;99634.34;1421212;90;22409;-84
2021/08/02 03:42:08;;;;;;;8.63;6.70;;;;;;;18.67;92.72;99636.89;1423003;90;21590;-84
2021/08/02 03:44:35;;;;;;;8.55;7.65;;;;;;;18.65;92.77;99634.13;1432641;90;21485;-84
2021/08/02 03:47:02;;;;;;;9.80;8.13;;;;;;;18.66;93.05;99634.42;1429549;90;22373;-83
2021/08/02 03:49:28;;;;;;;7.95;6.97;;;;;;;18.65;92.51;99638.16;1418795;92;21456;-83
2021/08/02 03:52:02;;;;;;;13.90;7.12;;;;;;;18.64;92.62;99637.83;1421213;92;21441;-84
2021/08/02 03:54:30;;;;;;;9.40;7.58;;;;;;;18.63;92.35;99633.00;1425783;92;21531;-84
2021/08/02 03:56:59;;;;;;;12.07;8.08;;;;;;;18.59;92.10;99630.99;1421683;91;21442;-83
2021/08/02 03:59:26;;;;;;;10.28;8.48;;;;;;;18.55;92.30;99635.13;1426090;90;21508;-84
2021/08/02 04:01:53;;;;;;;12.65;8.55;;;;;;;18.49;92.07;99640.31;1431004;90;21770;-84
2021/08/02 04:04:19;;;;;;;8.13;7.42;;;;;;;18.47;92.22;99651.80;1408173;89;21766;-82
2021/08/02 04:06:46;;;;;;;11.35;9.00;;;;;;;18.48;92.29;99653.42;1399916;92;21546;-84
2021/08/02 04:09:13;;;;;;;13.83;7.45;;;;;;;18.49;92.61;99663.09;1407997;92;22680;-84
2021/08/02 04:11:42;;;;;;;14.35;6.87;;;;;;;18.52;92.28;99666.38;1396916;92;21601;-85
2021/08/02 04:14:08;;;;;;;8.90;8.00;;;;;;;18.56;92.29;99664.89;1409463;92;21509;-83
2021/08/02 04:16:36;;;;;;;10.78;7.90;;;;;;;18.54;91.76;99668.34;1411030;92;21517;-84
2021/08/02 04:19:05;;;;;;;9.03;8.05;;;;;;;18.49;91.55;99676.48;1431968;91;21478;-82
2021/08/02 04:21:31;;;;;;;8.88;6.83;;;;;;;18.46;91.90;99679.60;1411524;92;21537;-84
2021/08/02 04:23:57;;;;;;;10.55;7.00;;;;;;;18.45;91.75;99676.63;1403587;92;22366;-84
2021/08/02 04:26:24;;;;;;;8.90;6.67;;;;;;;18.41;91.42;99684.81;1406514;92;21583;-84
2021/08/02 04:28:56;;;;;;;10.53;7.90;;;;;;;18.42;91.38;99681.09;1400665;93;23390;-83
2021/08/02 04:31:18;;;;;;;8.05;6.97;;;;;;;18.41;91.01;99664.72;1411796;91;21721;-84
2021/08/02 04:33:44;;;;;;;9.10;6.75;;;;;;;18.42;91.06;99675.73;1408594;92;21582;-84
2021/08/02 04:36:12;;;;;;;8.50;7.12;;;;;;;18.44;90.87;99677.69;1419946;87;21834;-83
2021/08/02 04:38:38;;;;;;;8.28;7.47;;;;;;;18.48;90.85;99678.88;1423066;91;21531;-84
2021/08/02 04:41:04;;;;;;;8.80;7.25;;;;;;;18.53;90.77;99673.37;1392294;91;21428;-84
2021/08/02 04:43:30;;;;;;;9.35;7.10;;;;;;;18.60;90.64;99686.22;1430763;91;21567;-84
2021/08/02 04:45:56;;;;;;;11.93;7.45;;;;;;;18.64;89.87;99692.77;1431210;91;22499;-83
2021/08/02 04:48:23;;;;;;;10.03;6.45;;;;;;;18.63;89.26;99695.16;1418229;89;21751;-84
2021/08/02 04:50:49;;;;;;;10.55;6.83;;;;;;;18.65;89.19;99696.59;1309314;94;21481;-84
2021/08/02 04:53:15;;;;;;;13.18;8.70;;;;;;;18.67;88.90;99695.01;1309363;94;22841;-84
2021/08/02 04:55:41;;;;;;;10.10;5.97;;;;;;;18.75;89.24;99692.62;1309617;93;21804;-84
2021/08/02 04:58:07;;;;;;;7.45;6.70;;;;;;;18.79;88.87;99704.04;1309509;93;22199;-83
2021/08/02 05:00:34;;;;;;;11.73;6.50;;;;;;;18.81;88.48;99708.64;1309185;94;21581;-83
2021/08/02 05:03:01;;;;;;;7.87;6.42;;;;;;;18.82;88.28;99712.98;1318432;93;22438;-84
2021/08/02 05:05:28;;;;;;;9.05;6.20;;;;;;;18.82;88.04;99717.00;1322328;94;21408;-84
2021/08/02 05:07:54;;;;;;;7.33;6.62;;;;;;;18.78;87.39;99723.82;1338052;91;21424;-85
2021/08/02 05:10:21;;;;;;;10.25;7.33;;;;;;;18.74;87.28;99721.29;1337815;92;22252;-83
2021/08/02 05:12:52;;;;;;;9.55;7.83;;;;;;;18.75;87.42;99725.59;1337900;91;21647;-83
2021/08/02 05:15:19;;;;;;;12.10;7.33;;;;;;;18.72;87.44;99721.98;1337820;91;21454;-82
2021/08/02 05:17:46;;;;;;;12.70;7.00;;;;;;;18.72;87.58;99716.63;1324251;94;21600;-85
2021/08/02 05:20:12;;;;;;;13.20;7.15;;;;;;;18.72;87.54;99723.33;1338150;91;21423;-84
2021/08/02 05:22:38;;;;;;;10.53;7.33;;;;;;;18.73;87.22;99733.03;1337833;92;22267;-83
2021/08/02 05:25:06;;;;;;;8.58;7.35;;;;;;;18.66;87.08;99730.91;1338364;91;21499;-83
2021/08/02 05:27:32;;;;;;;15.45;7.75;;;;;;;18.64;87.14;99738.33;1337924;91;22289;-84
2021/08/02 05:29:58;;;;;;;13.55;7.33;;;;;;;18.67;87.26;99743.25;1323761;94;21541;-82
2021/08/02 05:32:24;;;;;;;9.68;6.83;;;;;;;18.77;87.43;99744.98;1337953;91;21394;-83
2021/08/02 05:34:50;;;;;;;10.40;7.00;;;;;;;18.86;87.20;99750.36;1337772;92;21468;-79
2021/08/02 05:37:16;;;;;;;11.10;6.40;;;;;;;18.96;86.71;99758.44;1338045;91;21486;-78
2021/08/02 05:39:43;;;;;;;9.73;7.40;;;;;;;19.05;86.43;99763.85;1337909;91;21454;-79
2021/08/02 05:42:10;;;;;;;8.63;6.87;;;;;;;19.14;86.44;99757.16;1337774;92;21379;-78
2021/08/02 05:44:36;;;;;;;19.05;7.87;;;;;;;19.17;85.02;99759.41;1338110;91;21431;-78
2021/08/02 05:47:04;;;;;;;11.22;7.90;;;;;;;19.22;84.94;99772.98;1337897;92;21439;-78
2021/08/02 05:49:31;;;;;;;16.80;8.05;;;;;;;19.27;84.47;99773.13;1344036;91;22327;-78
2021/08/02 05:51:58;;;;;;;16.67;7.10;;;;;;;19.31;84.18;99776.20;1336179;92;21330;-79
2021/08/02 06:05:22;;;;;;;7.70;6.58;;;;;;;20.60;77.58;99771.64;1500217;86;28938;-85
2021/08/02 06:07:49;;;;;;;6.92;5.92;;;;;;;20.49;78.85;99767.83;1483901;87;22385;-85
2021/08/02 06:10:15;;;;;;;10.20;6.53;;;;;;;20.47;78.83;99775.29;1507262;86;21615;-84
2021/08/02 06:12:42;;;;;;;7.30;6.20;;;;;;;20.47;78.58;99779.84;1486743;87;21382;-84
2021/08/02 06:15:10;;;;;;;7.87;6.53;;;;;;;20.44;78.30;99772.25;1488466;87;22401;-85
2021/08/02 06:17:37;;;;;;;9.05;5.97;;;;;;;20.42;78.15;99765.73;1483355;87;21618;-85
2021/08/02 06:20:05;;;;;;;16.55;6.35;;;;;;;20.38;78.47;99763.23;1491896;88;21530;-85
2021/08/02 06:22:31;;;;;;;9.30;6.08;;;;;;;20.47;78.64;99767.75;1485222;87;21410;-85
2021/08/02 06:24:57;;;;;;;6.90;5.75;;;;;;;20.48;78.03;99770.73;1489317;88;21418;-86
2021/08/02 06:27:23;;;;;;;11.60;7.03;;;;;;;20.48;78.03;99770.73;1467657;87;22445;-85
2021/08/02 06:29:50;;;;;;;12.00;7.22;;;;;;;20.53;77.47;99784.88;1487373;87;21455;-84
2021/08/02 06:32:16;;;;;;;9.95;7.08;;;;;;;20.53;77.47;99783.52;1480902;87;21425;-84
2021/08/02 06:34:42;;;;;;;8.33;6.37;;;;;;;20.45;77.31;99771.19;1479899;87;21544;-85
2021/08/02 06:37:08;;;;;;;9.40;6.08;;;;;;;20.56;77.74;99778.50;1487056;87;21529;-85
2021/08/02 06:39:34;;;;;;;13.62;6.65;;;;;;;20.68;77.47;99794.14;1483891;87;21499;-85
2021/08/02 06:42:00;;;;;;;18.32;6.15;;;;;;;20.71;76.66;99803.13;1486342;87;21476;-85
2021/08/02 06:44:27;;;;;;;10.28;6.55;;;;;;;20.71;76.66;99803.13;1484933;86;21712;-85
2021/08/02 06:46:53;;;;;;;10.10;7.25;;;;;;;20.73;76.60;99808.25;1511360;86;22466;-85
2021/08/02 06:49:19;;;;;;;10.03;6.75;;;;;;;20.70;76.23;99808.19;1469723;86;22686;-86
2021/08/02 06:51:45;;;;;;;10.50;6.15;;;;;;;20.63;75.73;99810.66;1485072;86;21506;-85
2021/08/02 06:54:12;;;;;;;14.63;6.33;;;;;;;20.63;75.73;99810.66;1509544;86;21468;-88
2021/08/02 06:56:38;;;;;;;7.35;5.37;;;;;;;20.64;76.63;99812.32;1496382;86;23324;-86
2021/08/02 06:59:04;;;;;;;10.55;5.87;;;;;;;20.72;76.62;99822.76;1515013;86;21993;-87
2021/08/02 07:01:30;;;;;;;10.75;5.92;;;;;;;20.79;76.43;99826.69;1508124;86;21492;-84
2021/08/02 07:03:56;;;;;;;9.90;5.33;;;;;;;20.83;75.63;99829.20;1514031;86;21658;-86
2021/08/02 07:06:23;;;;;;;6.95;6.08;;;;;;;20.91;75.95;99831.03;1511313;86;21614;-85
2021/08/02 07:08:49;;;;;;;11.15;5.90;;;;;;;20.91;75.95;99831.03;1492283;86;21491;-85
2021/08/02 07:11:15;;;;;;;10.28;5.30;;;;;;;20.93;75.49;99829.48;1503923;86;22584;-84
2021/08/02 07:13:41;;;;;;;8.15;5.70;;;;;;;20.95;75.23;99832.77;1506873;86;21602;-85
2021/08/02 07:16:07;;;;;;;9.23;5.70;;;;;;;21.01;75.47;99837.22;1505728;86;21917;-84
2021/08/02 07:18:34;;;;;;;7.40;4.55;;;;;;;21.17;75.80;99837.88;1511906;86;21491;-85
2021/08/02 07:21:01;;;;;;;5.85;5.25;;;;;;;21.35;75.59;99839.68;1500047;86;21574;-84
2021/08/02 07:23:28;;;;;;;16.30;6.53;;;;;;;21.40;74.33;99834.42;1508535;86;21418;-87
2021/08/02 07:25:54;;;;;;;9.45;5.70;;;;;;;21.49;74.40;99838.97;1508035;86;21490;-86
2021/08/02 07:28:20;;;;;;;4.97;4.47;;;;;;;21.58;74.24;99844.30;1512790;86;21462;-86
2021/08/02 07:30:47;;;;;;;11.55;5.20;;;;;;;21.71;74.24;99839.72;1502677;86;21521;-86
2021/08/02 07:33:13;;;;;;;9.43;4.45;;;;;;;22.00;73.86;99848.17;1513779;86;21476;-86
2021/08/02 07:35:39;;;;;;;7.58;4.80;;;;;;;22.18;72.46;99835.63;1506019;86;21477;-86
2021/08/02 07:38:06;;;;;;;7.28;5.30;;;;;;;22.27;72.19;99842.31;1501034;86;22305;-86
2021/08/02 07:40:32;;;;;;;7.20;5.75;;;;;;;22.26;70.80;99856.29;1508800;86;21367;-87
2021/08/02 07:42:59;;;;;;;9.13;5.72;;;;;;;22.29;70.72;99856.34;1508244;86;21618;-87
2021/08/02 07:45:25;;;;;;;7.35;4.83;;;;;;;22.25;70.26;99867.33;1506732;86;21536;-86
2021/08/02 07:47:51;;;;;;;7.10;4.80;;;;;;;22.15;70.51;99872.45;1514451;86;21623;-87
2021/08/02 07:50:18;;;;;;;6.67;4.12;;;;;;;22.05;70.68;99876.58;1505911;86;22474;-84
2021/08/02 07:52:44;;;;;;;7.87;4.72;;;;;;;22.00;71.06;99885.89;1510623;86;22438;-84
2021/08/02 07:55:13;;;;;;;7.17;4.78;;;;;;;22.22;71.66;99890.71;1501352;86;21462;-85
2021/08/02 07:57:40;;;;;;;12.43;4.50;;;;;;;22.49;71.17;99880.20;1509407;86;21454;-84
2021/08/02 08:00:08;;;;;;;7.15;4.37;;;;;;;22.82;69.56;99894.34;1503512;86;21602;-84
2021/08/02 08:02:35;;;;;;;4.67;3.58;;;;;;;23.00;68.07;99896.05;1513230;86;21492;-84
2021/08/02 08:05:01;;;;;;;8.38;4.30;;;;;;;23.11;68.86;99897.88;1511734;86;21469;-85
2021/08/02 08:07:27;;;;;;;33.02;4.83;;;;;;;23.23;68.02;99898.34;1512461;86;21535;-84
2021/08/02 08:09:53;;;;;;;4.92;3.83;;;;;;;23.28;67.54;99901.13;1501035;86;22232;-85
2021/08/02 08:12:19;;;;;;;4.47;3.80;;;;;;;23.37;66.52;99905.88;1505896;86;21425;-84
2021/08/02 08:28:05;;;;;;;10.72;4.33;;;;;;;25.48;59.91;99890.43;1532954;85;28457;-84
2021/08/02 08:30:31;;;;;;;4.62;3.80;;;;;;;25.40;60.31;99898.48;1503330;86;22438;-83
2021/08/02 08:32:57;;;;;;;5.12;3.92;;;;;;;25.33;60.27;99905.48;1506439;86;21536;-84
2021/08/02 08:35:24;;;;;;;4.35;3.77;;;;;;;25.23;59.56;99911.33;1483344;88;21462;-83
2021/08/02 08:37:50;;;;;;;9.60;4.15;;;;;;;25.17;60.66;99913.98;1489087;87;22325;-83
2021/08/02 08:40:17;;;;;;;6.00;3.75;;;;;;;25.28;61.18;99917.61;1490991;87;21456;-83
2021/08/02 08:42:43;;;;;;;3.50;3.17;;;;;;;25.30;60.72;99921.44;1486717;88;21448;-83
2021/08/02 08:45:11;;;;;;;3.40;3.02;;;;;;;25.21;60.34;99917.83;1485857;88;22453;-83
2021/08/02 08:47:37;;;;;;;6.65;3.30;;;;;;;25.04;59.85;99917.63;1487977;87;21418;-83
2021/08/02 08:50:07;;;;;;;7.95;3.47;;;;;;;24.91;59.76;99913.42;1484067;87;21551;-83
2021/08/02 08:52:36;;;;;;;5.28;3.52;;;;;;;24.94;60.22;99916.44;1490776;88;21485;-84
2021/08/02 08:55:12;;;;;;;5.20;3.50;;;;;;;25.08;59.73;99922.27;1490987;87;21440;-86
2021/08/02 08:57:39;;;;;;;4.95;3.27;;;;;;;24.90;59.28;99922.63;1482580;87;22725;-84
2021/08/02 09:00:09;;;;;;;4.15;3.10;;;;;;;24.60;59.83;99918.52;1492356;87;21631;-85
2021/08/02 09:02:37;;;;;;;4.17;2.80;;;;;;;24.43;60.22;99928.58;1493563;86;22381;-85
2021/08/02 09:05:03;;;;;;;4.62;2.50;;;;;;;24.18;60.67;99932.53;1459489;88;21972;-85
2021/08/02 09:07:36;;;;;;;4.70;2.72;;;;;;;24.01;60.70;99929.86;1479706;87;21492;-85
2021/08/02 09:10:07;;;;;;;7.28;3.08;;;;;;;24.02;60.81;99927.97;1485465;87;21643;-85
2021/08/02 09:12:34;;;;;;;4.90;3.20;;;;;;;24.24;61.27;99918.02;1480669;87;21419;-85
2021/08/02 09:15:06;;;;;;;6.60;3.20;;;;;;;24.41;61.37;99914.45;1484444;88;21834;-85
2021/08/02 09:17:38;;;;;;;9.90;2.67;;;;;;;24.41;60.87;99923.91;1489566;87;22349;-85
2021/08/02 09:20:18;;;;;;;5.95;2.52;;;;;;;24.45;61.48;99920.47;1484806;88;21484;-85
2021/08/02 09:22:44;;;;;;;3.02;2.30;;;;;;;24.67;59.93;99919.13;1465234;88;22298;-85
2021/08/02 09:25:20;;;;;;;4.15;2.85;;;;;;;24.71;59.18;99924.30;1498383;87;21491;-86
2021/08/02 09:27:49;;;;;;;3.00;2.70;;;;;;;24.61;60.18;99925.55;1491508;87;22492;-85
2021/08/02 09:30:23;;;;;;;5.58;2.55;;;;;;;24.42;60.24;99927.70;1484392;88;21412;-85
2021/08/02 09:33:07;;;;;;;4.53;2.92;;;;;;;24.33;60.10;99924.63;1495590;87;21448;-85
2021/08/02 09:35:40;;;;;;;3.60;2.60;;;;;;;24.31;60.25;99924.08;1488452;87;22364;-84
2021/08/02 09:38:11;;;;;;;6.00;2.47;;;;;;;24.39;60.04;99919.28;1482450;87;21485;-85
2021/08/02 09:40:45;;;;;;;7.58;2.40;;;;;;;24.61;58.33;99924.20;1481861;88;21661;-85
2021/08/02 09:43:21;;;;;;;2.83;1.87;;;;;;;24.82;57.72;99927.95;1489494;87;22755;-85
2021/08/02 09:45:52;;;;;;;5.40;2.33;;;;;;;24.83;56.84;99931.47;1481575;88;21514;-85
2021/08/02 09:48:20;;;;;;;2.33;2.12;;;;;;;25.10;57.83;99928.25;1491933;87;22052;-85
2021/08/02 09:50:49;;;;;;;2.45;1.50;;;;;;;25.42;56.10;99927.49;1487154;87;21492;-85
2021/08/02 09:53:19;;;;;;;4.87;2.10;;;;;;;25.58;55.91;99934.68;1486511;87;21484;-85
2021/08/02 09:55:47;;;;;;;2.30;1.80;;;;;;;25.87;55.78;99927.61;1488428;87;22446;-86
2021/08/02 09:58:21;;;;;;;2.12;1.92;;;;;;;26.13;54.88;99934.55;1484108;87;21449;-86
2021/08/02 10:00:47;;;;;;;2.50;1.95;;;;;;;26.18;55.05;99937.27;1486370;87;21367;-86
2021/08/02 10:03:15;;;;;;;6.35;2.60;;;;;;;25.99;54.26;99945.84;1484480;87;21492;-85
2021/08/02 10:05:42;;;;;;;4.08;2.37;;;;;;;25.94;53.86;99947.16;1486439;87;21367;-85
2021/08/02 10:08:09;;;;;;;7.72;2.10;;;;;;;25.87;54.38;99946.04;1483164;87;22364;-87
2021/08/02 10:10:39;;;;;;;3.02;2.00;;;;;;;26.00;55.06;99948.02;1459102;88;21515;-88
2021/08/02 10:13:05;;;;;;;;;;;;;;;26.20;54.83;99952.75;1488128;88;21411;-88
2021/08/02 10:15:33;;;;;;;3.47;1.50;;;;;;;26.01;53.46;99953.19;1486709;87;20301;-87
2021/08/02 10:18:04;;;;;;;5.00;1.30;;;;;;;25.99;55.20;99955.88;1485978;87;21559;-88
2021/08/02 10:20:35;;;;;;;5.85;1.07;;;;;;;26.30;56.10;99970.45;1487288;88;21522;-88
2021/08/02 10:23:03;;;;;;;5.08;1.10;;;;;;;26.28;54.10;99967.17;1478554;88;21410;-88
2021/08/02 10:25:40;;;;;;;1.32;1.02;;;;;;;25.82;55.19;99966.84;1505248;87;21514;-88
2021/08/02 10:28:15;;;;;;;2.10;0.75;;;;;;;25.46;54.80;99963.81;1487714;87;22439;-88
2021/08/02 10:30:49;;;;;;;3.70;0.90;;;;;;;25.14;56.11;99978.13;1481221;88;21522;-86
2021/08/02 10:33:16;;;;;;;5.90;0.95;;;;;;;24.71;55.91;99982.47;1488184;87;21447;-87
2021/08/02 10:35:47;;;;;;;4.95;1.17;;;;;;;24.62;57.78;99988.05;1490627;87;21588;-86
2021/08/02 10:38:17;;;;;;;2.87;1.02;;;;;;;24.37;58.21;99989.86;1489553;87;21522;-86
2021/08/02 10:41:00;;;;;;;2.37;1.30;;;;;;;24.99;58.00;99990.12;1488754;88;21412;-87
2021/08/02 10:43:41;;;;;;;;;;;;;;;25.20;56.45;99990.67;1481476;87;21728;-86
2021/08/02 10:46:24;;;;;;;2.52;1.30;;;;;;;25.00;54.61;99991.75;1485999;87;20824;-87
2021/08/02 10:49:04;;;;;;;2.37;1.37;;;;;;;25.24;52.44;100003.16;1488317;87;21503;-87
2021/08/02 10:51:30;;;;;;;4.42;1.20;;;;;;;25.00;53.04;100009.34;1486315;87;21709;-87
2021/08/02 10:54:02;;;;;;;2.50;1.37;;;;;;;24.59;53.19;100008.84;1483123;87;21404;-87
2021/08/02 10:56:32;;;;;;;1.65;1.12;;;;;;;24.42;52.92;100002.63;1483121;87;21499;-84
2021/08/02 10:59:00;;;;;;;3.77;1.15;;;;;;;24.27;54.22;100001.33;1479640;87;21521;-85
2021/08/02 11:01:27;;;;;;;12.07;2.10;;;;;;;24.14;52.48;100009.81;1474048;87;21366;-82
2021/08/02 11:03:56;;;;;;;6.58;1.17;;;;;;;24.10;54.18;100015.41;1459841;87;21588;-83
2021/08/02 11:06:23;;;;;;;1.32;1.00;;;;;;;23.79;51.73;100020.84;1482164;87;21579;-84
2021/08/02 11:08:56;;;;;;;4.20;1.17;;;;;;;23.55;50.79;100019.60;1476154;87;22504;-84
2021/08/02 11:11:34;;;;;;;4.33;1.10;;;;;;;23.06;50.61;100011.66;1487336;87;21447;-83
2021/08/02 11:14:08;;;;;;;2.02;1.20;;;;;;;22.69;50.74;100020.04;1473780;87;21388;-83
2021/08/02 11:16:45;;;;;;;3.08;1.00;;;;;;;22.65;51.96;100022.40;1482793;87;22055;-83
2021/08/02 11:19:23;;;;;;;1.35;0.80;;;;;;;22.37;52.61;100018.27;1484266;87;21470;-84
2021/08/02 11:22:01;;;;;;;10.82;1.35;;;;;;;22.01;50.88;100018.23;1477657;87;22335;-83
2021/08/02 11:24:37;;;;;;;4.87;1.62;;;;;;;21.98;52.23;100024.08;1484220;87;22371;-85
2021/08/02 11:27:10;;;;;;;2.95;0.93;;;;;;;21.88;49.79;100019.77;1472636;87;21607;-86
2021/08/02 11:29:36;;;;;;;1.67;1.10;;;;;;;22.27;51.64;100026.95;1488240;87;21536;-86
2021/08/02 11:32:10;;;;;;;2.83;1.47;;;;;;;22.60;51.70;100028.21;1473579;87;21626;-86
2021/08/02 11:34:40;;;;;;;3.05;1.20;;;;;;;22.80;52.07;100032.69;1494859;87;22283;-86
2021/08/02 11:37:14;;;;;;;2.33;0.98;;;;;;;22.83;50.99;100032.22;1476372;88;21477;-87
2021/08/02 11:39:47;;;;;;;1.35;0.98;;;;;;;22.66;49.51;100023.21;1495575;87;21426;-86
2021/08/02 11:42:16;;;;;;;1.37;1.00;;;;;;;22.72;49.93;100024.42;1489313;87;22336;-86
2021/08/02 11:44:52;;;;;;;0.82;0.70;;;;;;;22.64;47.97;100028.02;1491474;87;22384;-87
2021/08/02 11:47:25;;;;;;;0.90;0.60;;;;;;;22.63;49.87;100034.48;1498816;87;21586;-88
2021/08/02 11:49:53;;;;;;;2.33;1.02;;;;;;;22.81;51.31;100034.32;1489529;87;21455;-87
2021/08/02 11:52:23;;;;;;;4.58;0.88;;;;;;;23.02;49.19;100025.33;1489578;87;21492;-88
2021/08/02 11:55:13;;;;;;;6.92;1.25;;;;;;;23.37;49.86;100023.87;1485095;87;21470;-87
2021/08/02 11:57:40;;;;;;;4.45;1.00;;;;;;;23.51;50.50;100027.09;1485851;87;21477;-87
2021/08/02 12:00:19;;;;;;;2.85;1.17;;;;;;;23.66;49.01;100032.77;1473335;88;21647;-87
2021/08/02 12:02:48;;;;;;;5.45;1.40;;;;;;;23.79;47.53;100024.36;1462505;88;22430;-87
2021/08/02 12:05:29;;;;;;;4.62;0.93;;;;;;;23.94;47.81;100022.98;1473172;88;22386;-87